sensor_id;sensor_type;location;lat;lon;timestamp;P1;durP1;ratioP1;P2;durP2;ratioP2
71423;SDS011;59240;51.370;-0.486;2023-04-07T00:00:29;5.90;;;0.70;;
71423;SDS011;59240;51.370;-0.486;2023-04-07T00:02:56;3.53;;;0.50;;
71423;SDS011;59240;51.370;-0.486;2023-04-07T00:05:29;7.55;;;0.93;;
71423;SDS011;59240;51.370;-0.486;2023-04-07T00:07:55;4.47;;;0.63;;
71423;SDS011;59240;51.370;-0.486;2023-04-07T00:10:23;6.03;;;0.60;;
71423;SDS011;59240;51.370;-0.486;2023-04-07T00:12:55;6.33;;;0.80;;
71423;SDS011;59240;51.370;-0.486;2023-04-07T00:15:21;5.38;;;0.50;;
71423;SDS011;59240;51.370;-0.486;2023-04-07T00:17:48;4.85;;;0.47;;
71423;SDS011;59240;51.370;-0.486;2023-04-07T00:20:15;6.65;;;0.70;;
71423;SDS011;59240;51.370;-0.486;2023-04-07T00:22:42;5.00;;;0.60;;
71423;SDS011;59240;51.370;-0.486;2023-04-07T00:25:11;7.97;;;0.43;;
71423;SDS011;59240;51.370;-0.486;2023-04-07T00:27:40;4.72;;;0.80;;
71423;SDS011;59240;51.370;-0.486;2023-04-07T00:30:07;5.93;;;0.70;;
71423;SDS011;59240;51.370;-0.486;2023-04-07T00:32:34;5.65;;;0.50;;
71423;SDS011;59240;51.370;-0.486;2023-04-07T00:35:01;5.75;;;0.60;;
71423;SDS011;59240;51.370;-0.486;2023-04-07T00:37:28;5.70;;;0.63;;
71423;SDS011;59240;51.370;-0.486;2023-04-07T00:39:55;4.65;;;0.70;;
71423;SDS011;59240;51.370;-0.486;2023-04-07T00:42:26;5.22;;;0.75;;
71423;SDS011;59240;51.370;-0.486;2023-04-07T00:44:52;4.80;;;0.70;;
71423;SDS011;59240;51.370;-0.486;2023-04-07T00:47:19;5.65;;;0.60;;
71423;SDS011;59240;51.370;-0.486;2023-04-07T00:49:46;5.23;;;0.67;;
71423;SDS011;59240;51.370;-0.486;2023-04-07T00:52:13;4.30;;;0.55;;
71423;SDS011;59240;51.370;-0.486;2023-04-07T00:54:42;4.18;;;0.73;;
71423;SDS011;59240;51.370;-0.486;2023-04-07T00:57:12;6.22;;;0.75;;
71423;SDS011;59240;51.370;-0.486;2023-04-07T00:59:40;6.97;;;0.80;;
71423;SDS011;59240;51.370;-0.486;2023-04-07T01:02:09;4.93;;;1.07;;
71423;SDS011;59240;51.370;-0.486;2023-04-07T01:07:30;7.28;;;1.25;;
71423;SDS011;59240;51.370;-0.486;2023-04-07T01:10:00;3.75;;;0.57;;
71423;SDS011;59240;51.370;-0.486;2023-04-07T01:15:27;5.80;;;0.70;;
71423;SDS011;59240;51.370;-0.486;2023-04-07T01:18:16;6.82;;;1.00;;
71423;SDS011;59240;51.370;-0.486;2023-04-07T01:20:53;7.10;;;0.70;;
71423;SDS011;59240;51.370;-0.486;2023-04-07T01:23:31;9.05;;;0.80;;
71423;SDS011;59240;51.370;-0.486;2023-04-07T01:32:03;8.73;;;0.68;;
71423;SDS011;59240;51.370;-0.486;2023-04-07T01:34:32;5.28;;;0.80;;
71423;SDS011;59240;51.370;-0.486;2023-04-07T01:37:00;14.65;;;0.75;;
71423;SDS011;59240;51.370;-0.486;2023-04-07T01:39:28;5.90;;;0.80;;
71423;SDS011;59240;51.370;-0.486;2023-04-07T01:41:56;7.13;;;0.57;;
71423;SDS011;59240;51.370;-0.486;2023-04-07T01:44:24;7.95;;;0.70;;
71423;SDS011;59240;51.370;-0.486;2023-04-07T01:46:56;5.55;;;0.57;;
71423;SDS011;59240;51.370;-0.486;2023-04-07T01:49:25;7.28;;;0.68;;
71423;SDS011;59240;51.370;-0.486;2023-04-07T01:51:53;4.55;;;0.80;;
71423;SDS011;59240;51.370;-0.486;2023-04-07T01:54:22;5.43;;;0.70;;
71423;SDS011;59240;51.370;-0.486;2023-04-07T01:56:49;3.65;;;0.47;;
71423;SDS011;59240;51.370;-0.486;2023-04-07T01:59:15;8.38;;;0.73;;
71423;SDS011;59240;51.370;-0.486;2023-04-07T02:01:42;4.60;;;0.57;;
71423;SDS011;59240;51.370;-0.486;2023-04-07T02:06:53;13.07;;;0.80;;
71423;SDS011;59240;51.370;-0.486;2023-04-07T02:09:26;4.82;;;0.40;;
71423;SDS011;59240;51.370;-0.486;2023-04-07T02:11:57;9.48;;;0.88;;
71423;SDS011;59240;51.370;-0.486;2023-04-07T02:14:26;8.05;;;0.90;;
71423;SDS011;59240;51.370;-0.486;2023-04-07T02:16:53;4.05;;;1.13;;
71423;SDS011;59240;51.370;-0.486;2023-04-07T02:19:22;5.40;;;0.47;;
71423;SDS011;59240;51.370;-0.486;2023-04-07T02:21:48;3.85;;;0.60;;
71423;SDS011;59240;51.370;-0.486;2023-04-07T02:24:20;4.20;;;0.70;;
71423;SDS011;59240;51.370;-0.486;2023-04-07T02:26:47;6.43;;;0.52;;
71423;SDS011;59240;51.370;-0.486;2023-04-07T02:29:14;5.53;;;0.63;;
71423;SDS011;59240;51.370;-0.486;2023-04-07T02:31:41;3.70;;;0.60;;
71423;SDS011;59240;51.370;-0.486;2023-04-07T02:34:07;10.23;;;0.55;;
71423;SDS011;59240;51.370;-0.486;2023-04-07T02:36:34;6.32;;;0.73;;
71423;SDS011;59240;51.370;-0.486;2023-04-07T02:39:04;7.95;;;0.90;;
71423;SDS011;59240;51.370;-0.486;2023-04-07T02:41:31;6.32;;;0.82;;
71423;SDS011;59240;51.370;-0.486;2023-04-07T02:43:57;5.07;;;0.47;;
71423;SDS011;59240;51.370;-0.486;2023-04-07T02:46:24;7.30;;;0.70;;
71423;SDS011;59240;51.370;-0.486;2023-04-07T02:48:51;4.75;;;0.60;;
71423;SDS011;59240;51.370;-0.486;2023-04-07T02:51:18;4.50;;;0.60;;
71423;SDS011;59240;51.370;-0.486;2023-04-07T02:53:44;6.00;;;0.88;;
71423;SDS011;59240;51.370;-0.486;2023-04-07T02:56:11;5.23;;;0.50;;
71423;SDS011;59240;51.370;-0.486;2023-04-07T02:58:38;6.20;;;1.17;;
71423;SDS011;59240;51.370;-0.486;2023-04-07T03:01:04;7.47;;;0.90;;
71423;SDS011;59240;51.370;-0.486;2023-04-07T03:03:31;7.60;;;0.70;;
71423;SDS011;59240;51.370;-0.486;2023-04-07T03:05:58;7.55;;;0.88;;
71423;SDS011;59240;51.370;-0.486;2023-04-07T03:08:25;6.23;;;0.70;;
71423;SDS011;59240;51.370;-0.486;2023-04-07T03:10:52;8.35;;;0.95;;
71423;SDS011;59240;51.370;-0.486;2023-04-07T03:13:19;6.55;;;0.82;;
71423;SDS011;59240;51.370;-0.486;2023-04-07T03:15:46;6.18;;;0.50;;
71423;SDS011;59240;51.370;-0.486;2023-04-07T03:18:13;5.38;;;0.80;;
71423;SDS011;59240;51.370;-0.486;2023-04-07T03:20:39;5.83;;;0.60;;
71423;SDS011;59240;51.370;-0.486;2023-04-07T03:23:07;5.97;;;0.65;;
71423;SDS011;59240;51.370;-0.486;2023-04-07T03:25:34;5.55;;;0.75;;
71423;SDS011;59240;51.370;-0.486;2023-04-07T03:28:01;7.15;;;0.60;;
71423;SDS011;59240;51.370;-0.486;2023-04-07T03:30:27;9.07;;;0.90;;
71423;SDS011;59240;51.370;-0.486;2023-04-07T03:32:54;4.50;;;0.70;;
71423;SDS011;59240;51.370;-0.486;2023-04-07T03:35:21;8.88;;;0.90;;
71423;SDS011;59240;51.370;-0.486;2023-04-07T03:37:48;6.72;;;0.80;;
71423;SDS011;59240;51.370;-0.486;2023-04-07T03:40:15;9.52;;;0.73;;
71423;SDS011;59240;51.370;-0.486;2023-04-07T03:42:42;5.85;;;0.90;;
71423;SDS011;59240;51.370;-0.486;2023-04-07T03:45:08;7.23;;;0.70;;
71423;SDS011;59240;51.370;-0.486;2023-04-07T03:47:35;5.43;;;0.73;;
71423;SDS011;59240;51.370;-0.486;2023-04-07T03:50:02;7.68;;;0.82;;
71423;SDS011;59240;51.370;-0.486;2023-04-07T03:52:29;7.40;;;0.98;;
71423;SDS011;59240;51.370;-0.486;2023-04-07T03:54:55;5.97;;;0.65;;
71423;SDS011;59240;51.370;-0.486;2023-04-07T03:57:22;6.13;;;0.70;;
71423;SDS011;59240;51.370;-0.486;2023-04-07T03:59:49;7.93;;;0.70;;
71423;SDS011;59240;51.370;-0.486;2023-04-07T04:02:17;5.57;;;0.70;;
71423;SDS011;59240;51.370;-0.486;2023-04-07T04:04:44;5.93;;;0.73;;
71423;SDS011;59240;51.370;-0.486;2023-04-07T04:07:11;4.53;;;0.88;;
71423;SDS011;59240;51.370;-0.486;2023-04-07T04:09:38;5.60;;;1.17;;
71423;SDS011;59240;51.370;-0.486;2023-04-07T04:12:05;3.45;;;0.70;;
71423;SDS011;59240;51.370;-0.486;2023-04-07T04:14:32;5.57;;;0.90;;
71423;SDS011;59240;51.370;-0.486;2023-04-07T04:16:58;4.97;;;1.13;;
71423;SDS011;59240;51.370;-0.486;2023-04-07T04:19:25;7.55;;;0.80;;
71423;SDS011;59240;51.370;-0.486;2023-04-07T04:21:51;9.80;;;0.70;;
71423;SDS011;59240;51.370;-0.486;2023-04-07T04:24:18;2.72;;;0.35;;
71423;SDS011;59240;51.370;-0.486;2023-04-07T04:26:47;4.93;;;0.70;;
71423;SDS011;59240;51.370;-0.486;2023-04-07T04:29:14;4.88;;;0.50;;
71423;SDS011;59240;51.370;-0.486;2023-04-07T04:31:40;7.55;;;0.65;;
71423;SDS011;59240;51.370;-0.486;2023-04-07T04:34:07;3.83;;;0.60;;
71423;SDS011;59240;51.370;-0.486;2023-04-07T04:36:34;7.65;;;0.70;;
71423;SDS011;59240;51.370;-0.486;2023-04-07T04:39:03;4.90;;;0.88;;
71423;SDS011;59240;51.370;-0.486;2023-04-07T04:41:30;5.50;;;0.57;;
71423;SDS011;59240;51.370;-0.486;2023-04-07T04:43:57;9.30;;;0.95;;
71423;SDS011;59240;51.370;-0.486;2023-04-07T04:46:23;5.43;;;0.63;;
71423;SDS011;59240;51.370;-0.486;2023-04-07T04:48:50;5.85;;;1.10;;
71423;SDS011;59240;51.370;-0.486;2023-04-07T04:51:18;6.00;;;0.85;;
71423;SDS011;59240;51.370;-0.486;2023-04-07T04:53:45;4.68;;;0.68;;
71423;SDS011;59240;51.370;-0.486;2023-04-07T04:56:11;7.15;;;0.85;;
71423;SDS011;59240;51.370;-0.486;2023-04-07T04:58:38;6.10;;;0.90;;
71423;SDS011;59240;51.370;-0.486;2023-04-07T05:01:12;4.88;;;0.85;;
71423;SDS011;59240;51.370;-0.486;2023-04-07T05:03:39;7.80;;;0.85;;
71423;SDS011;59240;51.370;-0.486;2023-04-07T05:06:06;6.55;;;0.80;;
71423;SDS011;59240;51.370;-0.486;2023-04-07T05:08:33;6.10;;;0.70;;
71423;SDS011;59240;51.370;-0.486;2023-04-07T05:10:59;4.67;;;0.67;;
71423;SDS011;59240;51.370;-0.486;2023-04-07T05:13:26;3.60;;;0.60;;
71423;SDS011;59240;51.370;-0.486;2023-04-07T05:15:56;9.18;;;0.93;;
71423;SDS011;59240;51.370;-0.486;2023-04-07T05:18:24;4.70;;;0.70;;
71423;SDS011;59240;51.370;-0.486;2023-04-07T05:20:51;6.63;;;1.20;;
71423;SDS011;59240;51.370;-0.486;2023-04-07T05:23:18;9.53;;;1.60;;
71423;SDS011;59240;51.370;-0.486;2023-04-07T05:25:45;8.02;;;0.98;;
71423;SDS011;59240;51.370;-0.486;2023-04-07T05:28:11;5.55;;;1.15;;
71423;SDS011;59240;51.370;-0.486;2023-04-07T05:30:38;8.30;;;1.48;;
71423;SDS011;59240;51.370;-0.486;2023-04-07T05:33:05;7.85;;;1.60;;
71423;SDS011;59240;51.370;-0.486;2023-04-07T05:35:32;9.77;;;1.73;;
71423;SDS011;59240;51.370;-0.486;2023-04-07T05:37:59;9.07;;;1.45;;
71423;SDS011;59240;51.370;-0.486;2023-04-07T05:40:26;6.03;;;1.30;;
71423;SDS011;59240;51.370;-0.486;2023-04-07T05:42:53;7.78;;;1.73;;
71423;SDS011;59240;51.370;-0.486;2023-04-07T05:45:20;6.97;;;1.27;;
71423;SDS011;59240;51.370;-0.486;2023-04-07T05:47:47;6.20;;;1.60;;
71423;SDS011;59240;51.370;-0.486;2023-04-07T05:50:16;6.65;;;1.58;;
71423;SDS011;59240;51.370;-0.486;2023-04-07T05:52:43;7.88;;;1.92;;
71423;SDS011;59240;51.370;-0.486;2023-04-07T05:55:10;7.97;;;1.95;;
71423;SDS011;59240;51.370;-0.486;2023-04-07T05:57:37;12.10;;;1.77;;
71423;SDS011;59240;51.370;-0.486;2023-04-07T06:00:04;10.10;;;1.53;;
71423;SDS011;59240;51.370;-0.486;2023-04-07T06:02:32;9.82;;;1.90;;
71423;SDS011;59240;51.370;-0.486;2023-04-07T06:04:59;7.32;;;1.60;;
71423;SDS011;59240;51.370;-0.486;2023-04-07T06:07:26;9.00;;;1.90;;
71423;SDS011;59240;51.370;-0.486;2023-04-07T06:09:53;8.15;;;1.70;;
71423;SDS011;59240;51.370;-0.486;2023-04-07T06:12:19;8.10;;;2.10;;
71423;SDS011;59240;51.370;-0.486;2023-04-07T06:14:51;8.32;;;2.10;;
71423;SDS011;59240;51.370;-0.486;2023-04-07T06:17:23;9.25;;;1.90;;
71423;SDS011;59240;51.370;-0.486;2023-04-07T06:19:52;8.35;;;1.98;;
71423;SDS011;59240;51.370;-0.486;2023-04-07T06:22:19;14.07;;;2.80;;
71423;SDS011;59240;51.370;-0.486;2023-04-07T06:24:45;8.03;;;1.80;;
71423;SDS011;59240;51.370;-0.486;2023-04-07T06:27:12;9.32;;;1.83;;
71423;SDS011;59240;51.370;-0.486;2023-04-07T06:29:39;7.15;;;1.58;;
71423;SDS011;59240;51.370;-0.486;2023-04-07T06:32:06;10.52;;;1.70;;
71423;SDS011;59240;51.370;-0.486;2023-04-07T06:34:36;8.55;;;1.65;;
71423;SDS011;59240;51.370;-0.486;2023-04-07T06:37:04;11.30;;;2.10;;
71423;SDS011;59240;51.370;-0.486;2023-04-07T06:39:35;9.30;;;1.58;;
71423;SDS011;59240;51.370;-0.486;2023-04-07T06:42:04;9.90;;;1.95;;
71423;SDS011;59240;51.370;-0.486;2023-04-07T06:44:31;5.55;;;1.17;;
71423;SDS011;59240;51.370;-0.486;2023-04-07T06:46:58;12.93;;;1.75;;
71423;SDS011;59240;51.370;-0.486;2023-04-07T06:49:27;8.77;;;1.83;;
71423;SDS011;59240;51.370;-0.486;2023-04-07T06:51:54;9.13;;;1.27;;
71423;SDS011;59240;51.370;-0.486;2023-04-07T06:54:20;9.77;;;1.80;;
71423;SDS011;59240;51.370;-0.486;2023-04-07T06:56:47;6.85;;;1.40;;
71423;SDS011;59240;51.370;-0.486;2023-04-07T06:59:14;7.50;;;1.70;;
71423;SDS011;59240;51.370;-0.486;2023-04-07T07:01:41;10.83;;;1.90;;
71423;SDS011;59240;51.370;-0.486;2023-04-07T07:04:09;9.50;;;2.03;;
71423;SDS011;59240;51.370;-0.486;2023-04-07T07:06:36;8.27;;;2.13;;
71423;SDS011;59240;51.370;-0.486;2023-04-07T07:09:03;8.10;;;1.83;;
71423;SDS011;59240;51.370;-0.486;2023-04-07T07:11:30;10.40;;;3.45;;
71423;SDS011;59240;51.370;-0.486;2023-04-07T07:13:56;8.90;;;2.33;;
71423;SDS011;59240;51.370;-0.486;2023-04-07T07:16:23;9.48;;;1.38;;
71423;SDS011;59240;51.370;-0.486;2023-04-07T07:18:50;12.18;;;2.15;;
71423;SDS011;59240;51.370;-0.486;2023-04-07T07:21:17;8.60;;;1.42;;
71423;SDS011;59240;51.370;-0.486;2023-04-07T07:23:44;12.95;;;2.35;;
71423;SDS011;59240;51.370;-0.486;2023-04-07T07:26:23;7.33;;;1.17;;
71423;SDS011;59240;51.370;-0.486;2023-04-07T07:29:42;6.70;;;0.93;;
71423;SDS011;59240;51.370;-0.486;2023-04-07T07:32:21;5.95;;;1.10;;
71423;SDS011;59240;51.370;-0.486;2023-04-07T07:34:51;7.00;;;1.00;;
71423;SDS011;59240;51.370;-0.486;2023-04-07T07:37:25;7.78;;;1.20;;
71423;SDS011;59240;51.370;-0.486;2023-04-07T07:39:54;7.07;;;0.90;;
71423;SDS011;59240;51.370;-0.486;2023-04-07T07:42:21;9.38;;;1.05;;
71423;SDS011;59240;51.370;-0.486;2023-04-07T07:44:48;9.07;;;1.00;;
71423;SDS011;59240;51.370;-0.486;2023-04-07T07:47:46;8.10;;;1.13;;
71423;SDS011;59240;51.370;-0.486;2023-04-07T07:50:33;7.05;;;0.98;;
71423;SDS011;59240;51.370;-0.486;2023-04-07T07:53:00;5.63;;;0.87;;
71423;SDS011;59240;51.370;-0.486;2023-04-07T07:55:36;6.40;;;0.90;;
71423;SDS011;59240;51.370;-0.486;2023-04-07T07:58:02;7.45;;;0.90;;
71423;SDS011;59240;51.370;-0.486;2023-04-07T08:00:32;6.15;;;1.17;;
71423;SDS011;59240;51.370;-0.486;2023-04-07T08:02:59;10.68;;;1.30;;
71423;SDS011;59240;51.370;-0.486;2023-04-07T08:05:28;7.17;;;1.00;;
71423;SDS011;59240;51.370;-0.486;2023-04-07T08:07:57;10.65;;;0.70;;
71423;SDS011;59240;51.370;-0.486;2023-04-07T08:10:25;5.30;;;0.95;;
71423;SDS011;59240;51.370;-0.486;2023-04-07T08:12:54;12.70;;;1.65;;
71423;SDS011;59240;51.370;-0.486;2023-04-07T08:15:24;6.43;;;0.95;;
71423;SDS011;59240;51.370;-0.486;2023-04-07T08:17:52;9.43;;;1.17;;
71423;SDS011;59240;51.370;-0.486;2023-04-07T08:20:49;5.72;;;0.98;;
71423;SDS011;59240;51.370;-0.486;2023-04-07T08:23:27;6.28;;;1.05;;
71423;SDS011;59240;51.370;-0.486;2023-04-07T08:25:54;7.82;;;1.00;;
71423;SDS011;59240;51.370;-0.486;2023-04-07T08:28:23;5.32;;;0.80;;
71423;SDS011;59240;51.370;-0.486;2023-04-07T08:30:57;8.43;;;1.50;;
71423;SDS011;59240;51.370;-0.486;2023-04-07T08:33:24;9.40;;;1.13;;
71423;SDS011;59240;51.370;-0.486;2023-04-07T08:35:54;8.77;;;1.20;;
71423;SDS011;59240;51.370;-0.486;2023-04-07T08:38:23;8.73;;;1.50;;
71423;SDS011;59240;51.370;-0.486;2023-04-07T08:40:53;5.72;;;1.15;;
71423;SDS011;59240;51.370;-0.486;2023-04-07T08:43:56;7.83;;;1.10;;
71423;SDS011;59240;51.370;-0.486;2023-04-07T08:46:24;8.70;;;1.20;;
71423;SDS011;59240;51.370;-0.486;2023-04-07T08:48:54;10.80;;;1.30;;
71423;SDS011;59240;51.370;-0.486;2023-04-07T08:51:39;10.20;;;1.40;;
71423;SDS011;59240;51.370;-0.486;2023-04-07T08:54:14;9.93;;;1.17;;
71423;SDS011;59240;51.370;-0.486;2023-04-07T08:56:44;6.87;;;1.50;;
71423;SDS011;59240;51.370;-0.486;2023-04-07T08:59:13;8.13;;;1.45;;
71423;SDS011;59240;51.370;-0.486;2023-04-07T09:01:41;14.98;;;1.70;;
71423;SDS011;59240;51.370;-0.486;2023-04-07T09:04:13;9.30;;;1.35;;
71423;SDS011;59240;51.370;-0.486;2023-04-07T09:06:49;6.03;;;1.60;;
71423;SDS011;59240;51.370;-0.486;2023-04-07T09:09:21;6.70;;;1.23;;
71423;SDS011;59240;51.370;-0.486;2023-04-07T09:11:57;8.68;;;1.58;;
71423;SDS011;59240;51.370;-0.486;2023-04-07T09:14:34;9.13;;;1.40;;
71423;SDS011;59240;51.370;-0.486;2023-04-07T09:17:06;18.65;;;1.70;;
71423;SDS011;59240;51.370;-0.486;2023-04-07T09:19:44;7.40;;;1.08;;
71423;SDS011;59240;51.370;-0.486;2023-04-07T09:22:41;6.80;;;1.30;;
71423;SDS011;59240;51.370;-0.486;2023-04-07T09:25:39;7.05;;;1.13;;
71423;SDS011;59240;51.370;-0.486;2023-04-07T09:28:06;7.47;;;1.30;;
71423;SDS011;59240;51.370;-0.486;2023-04-07T09:30:37;8.57;;;1.98;;
71423;SDS011;59240;51.370;-0.486;2023-04-07T09:33:10;5.88;;;1.20;;
71423;SDS011;59240;51.370;-0.486;2023-04-07T09:35:51;8.47;;;1.70;;
71423;SDS011;59240;51.370;-0.486;2023-04-07T09:38:21;6.75;;;1.33;;
71423;SDS011;59240;51.370;-0.486;2023-04-07T09:45:00;7.10;;;1.23;;
71423;SDS011;59240;51.370;-0.486;2023-04-07T09:51:29;7.27;;;1.40;;
71423;SDS011;59240;51.370;-0.486;2023-04-07T09:54:05;8.38;;;1.73;;
71423;SDS011;59240;51.370;-0.486;2023-04-07T09:56:32;7.65;;;1.30;;
71423;SDS011;59240;51.370;-0.486;2023-04-07T09:59:13;6.28;;;1.33;;
71423;SDS011;59240;51.370;-0.486;2023-04-07T10:01:50;9.55;;;1.15;;
71423;SDS011;59240;51.370;-0.486;2023-04-07T10:04:29;11.03;;;1.40;;
71423;SDS011;59240;51.370;-0.486;2023-04-07T10:07:23;6.65;;;1.17;;
71423;SDS011;59240;51.370;-0.486;2023-04-07T10:10:19;7.53;;;1.23;;
71423;SDS011;59240;51.370;-0.486;2023-04-07T10:13:15;5.90;;;1.00;;
71423;SDS011;59240;51.370;-0.486;2023-04-07T10:15:56;6.65;;;1.50;;
71423;SDS011;59240;51.370;-0.486;2023-04-07T10:22:30;6.72;;;1.70;;
71423;SDS011;59240;51.370;-0.486;2023-04-07T10:26:08;6.20;;;1.15;;
71423;SDS011;59240;51.370;-0.486;2023-04-07T10:32:45;9.88;;;1.50;;
71423;SDS011;59240;51.370;-0.486;2023-04-07T10:38:36;6.55;;;1.52;;
71423;SDS011;59240;51.370;-0.486;2023-04-07T10:41:46;7.75;;;1.50;;
71423;SDS011;59240;51.370;-0.486;2023-04-07T11:03:58;5.60;;;1.17;;
71423;SDS011;59240;51.370;-0.486;2023-04-07T11:07:15;6.45;;;0.95;;
71423;SDS011;59240;51.370;-0.486;2023-04-07T11:10:21;3.77;;;0.80;;
71423;SDS011;59240;51.370;-0.486;2023-04-07T11:13:07;8.15;;;1.10;;
71423;SDS011;59240;51.370;-0.486;2023-04-07T11:16:38;4.38;;;0.50;;
71423;SDS011;59240;51.370;-0.486;2023-04-07T11:19:41;4.82;;;0.80;;
71423;SDS011;59240;51.370;-0.486;2023-04-07T11:22:40;6.35;;;0.82;;
71423;SDS011;59240;51.370;-0.486;2023-04-07T11:25:19;2.80;;;0.40;;
71423;SDS011;59240;51.370;-0.486;2023-04-07T11:27:47;4.68;;;1.00;;
71423;SDS011;59240;51.370;-0.486;2023-04-07T11:30:14;4.78;;;0.70;;
71423;SDS011;59240;51.370;-0.486;2023-04-07T11:32:47;3.90;;;0.50;;
71423;SDS011;59240;51.370;-0.486;2023-04-07T11:35:14;6.15;;;0.70;;
71423;SDS011;59240;51.370;-0.486;2023-04-07T11:37:41;5.90;;;0.70;;
71423;SDS011;59240;51.370;-0.486;2023-04-07T11:40:08;5.15;;;0.60;;
71423;SDS011;59240;51.370;-0.486;2023-04-07T11:42:45;7.43;;;1.02;;
71423;SDS011;59240;51.370;-0.486;2023-04-07T11:45:40;6.00;;;0.88;;
71423;SDS011;59240;51.370;-0.486;2023-04-07T11:48:27;5.47;;;0.73;;
71423;SDS011;59240;51.370;-0.486;2023-04-07T11:51:01;5.57;;;1.03;;
71423;SDS011;59240;51.370;-0.486;2023-04-07T11:53:34;4.72;;;0.80;;
71423;SDS011;59240;51.370;-0.486;2023-04-07T11:56:07;4.75;;;0.70;;
71423;SDS011;59240;51.370;-0.486;2023-04-07T11:58:53;5.72;;;0.88;;
71423;SDS011;59240;51.370;-0.486;2023-04-07T12:01:21;6.70;;;0.75;;
71423;SDS011;59240;51.370;-0.486;2023-04-07T12:04:10;5.43;;;0.73;;
71423;SDS011;59240;51.370;-0.486;2023-04-07T12:06:45;5.70;;;0.70;;
71423;SDS011;59240;51.370;-0.486;2023-04-07T12:12:04;6.85;;;1.33;;
71423;SDS011;59240;51.370;-0.486;2023-04-07T12:14:37;4.90;;;0.80;;
71423;SDS011;59240;51.370;-0.486;2023-04-07T12:17:13;5.17;;;0.60;;
71423;SDS011;59240;51.370;-0.486;2023-04-07T12:19:53;5.32;;;0.93;;
71423;SDS011;59240;51.370;-0.486;2023-04-07T12:22:22;5.72;;;0.70;;
71423;SDS011;59240;51.370;-0.486;2023-04-07T12:25:01;4.65;;;0.65;;
71423;SDS011;59240;51.370;-0.486;2023-04-07T12:27:31;4.43;;;0.73;;
71423;SDS011;59240;51.370;-0.486;2023-04-07T12:30:08;4.57;;;0.63;;
71423;SDS011;59240;51.370;-0.486;2023-04-07T12:32:38;4.65;;;0.80;;
71423;SDS011;59240;51.370;-0.486;2023-04-07T12:35:05;7.35;;;1.20;;
71423;SDS011;59240;51.370;-0.486;2023-04-07T12:37:39;7.35;;;0.95;;
71423;SDS011;59240;51.370;-0.486;2023-04-07T12:40:20;6.10;;;0.80;;
71423;SDS011;59240;51.370;-0.486;2023-04-07T12:42:49;4.40;;;0.83;;
71423;SDS011;59240;51.370;-0.486;2023-04-07T12:45:16;6.70;;;0.73;;
71423;SDS011;59240;51.370;-0.486;2023-04-07T12:47:50;4.47;;;0.75;;
71423;SDS011;59240;51.370;-0.486;2023-04-07T12:50:17;5.47;;;1.05;;
71423;SDS011;59240;51.370;-0.486;2023-04-07T12:52:44;6.15;;;0.90;;
71423;SDS011;59240;51.370;-0.486;2023-04-07T12:55:17;5.30;;;0.63;;
71423;SDS011;59240;51.370;-0.486;2023-04-07T12:57:44;5.30;;;0.80;;
71423;SDS011;59240;51.370;-0.486;2023-04-07T13:00:20;5.60;;;0.73;;
71423;SDS011;59240;51.370;-0.486;2023-04-07T13:02:50;5.07;;;0.70;;
71423;SDS011;59240;51.370;-0.486;2023-04-07T13:05:34;3.97;;;0.60;;
71423;SDS011;59240;51.370;-0.486;2023-04-07T13:08:01;4.73;;;0.70;;
71423;SDS011;59240;51.370;-0.486;2023-04-07T13:10:37;4.50;;;0.45;;
71423;SDS011;59240;51.370;-0.486;2023-04-07T13:13:31;6.10;;;0.82;;
71423;SDS011;59240;51.370;-0.486;2023-04-07T13:16:28;4.43;;;1.00;;
71423;SDS011;59240;51.370;-0.486;2023-04-07T13:18:58;5.10;;;0.70;;
71423;SDS011;59240;51.370;-0.486;2023-04-07T13:21:32;4.10;;;0.50;;
71423;SDS011;59240;51.370;-0.486;2023-04-07T13:24:19;6.85;;;1.00;;
71423;SDS011;59240;51.370;-0.486;2023-04-07T13:26:47;4.68;;;0.60;;
71423;SDS011;59240;51.370;-0.486;2023-04-07T13:29:16;4.13;;;0.60;;
71423;SDS011;59240;51.370;-0.486;2023-04-07T13:31:46;4.75;;;0.47;;
71423;SDS011;59240;51.370;-0.486;2023-04-07T13:34:15;4.13;;;0.50;;
71423;SDS011;59240;51.370;-0.486;2023-04-07T13:36:53;6.70;;;1.00;;
71423;SDS011;59240;51.370;-0.486;2023-04-07T13:42:51;4.25;;;0.63;;
71423;SDS011;59240;51.370;-0.486;2023-04-07T13:45:24;4.47;;;0.60;;
71423;SDS011;59240;51.370;-0.486;2023-04-07T13:48:55;3.50;;;0.50;;
71423;SDS011;59240;51.370;-0.486;2023-04-07T13:52:29;2.88;;;0.30;;
71423;SDS011;59240;51.370;-0.486;2023-04-07T13:55:10;3.10;;;0.40;;
71423;SDS011;59240;51.370;-0.486;2023-04-07T13:57:49;2.95;;;0.60;;
71423;SDS011;59240;51.370;-0.486;2023-04-07T14:00:20;3.97;;;0.30;;
71423;SDS011;59240;51.370;-0.486;2023-04-07T14:02:51;3.43;;;0.40;;
71423;SDS011;59240;51.370;-0.486;2023-04-07T14:05:21;4.47;;;0.50;;
71423;SDS011;59240;51.370;-0.486;2023-04-07T14:07:51;4.07;;;0.47;;
71423;SDS011;59240;51.370;-0.486;2023-04-07T14:10:48;3.97;;;0.43;;
71423;SDS011;59240;51.370;-0.486;2023-04-07T14:13:20;3.72;;;0.30;;
71423;SDS011;59240;51.370;-0.486;2023-04-07T14:16:07;5.00;;;0.67;;
71423;SDS011;59240;51.370;-0.486;2023-04-07T14:18:38;4.82;;;0.50;;
71423;SDS011;59240;51.370;-0.486;2023-04-07T14:21:06;4.10;;;0.50;;
71423;SDS011;59240;51.370;-0.486;2023-04-07T14:23:35;5.13;;;0.50;;
71423;SDS011;59240;51.370;-0.486;2023-04-07T14:26:03;3.90;;;0.95;;
71423;SDS011;59240;51.370;-0.486;2023-04-07T14:28:50;5.70;;;0.67;;
71423;SDS011;59240;51.370;-0.486;2023-04-07T14:31:19;4.03;;;0.43;;
71423;SDS011;59240;51.370;-0.486;2023-04-07T14:33:58;4.50;;;0.50;;
71423;SDS011;59240;51.370;-0.486;2023-04-07T14:36:27;3.15;;;0.50;;
71423;SDS011;59240;51.370;-0.486;2023-04-07T14:38:55;5.40;;;0.90;;
71423;SDS011;59240;51.370;-0.486;2023-04-07T14:41:36;4.17;;;0.50;;
71423;SDS011;59240;51.370;-0.486;2023-04-07T14:44:05;5.85;;;0.88;;
71423;SDS011;59240;51.370;-0.486;2023-04-07T14:46:34;5.25;;;0.90;;
71423;SDS011;59240;51.370;-0.486;2023-04-07T14:49:01;4.05;;;0.70;;
71423;SDS011;59240;51.370;-0.486;2023-04-07T14:51:48;4.93;;;0.60;;
71423;SDS011;59240;51.370;-0.486;2023-04-07T14:57:19;5.25;;;0.60;;
71423;SDS011;59240;51.370;-0.486;2023-04-07T15:03:27;5.15;;;0.73;;
71423;SDS011;59240;51.370;-0.486;2023-04-07T15:06:07;4.32;;;0.45;;
71423;SDS011;59240;51.370;-0.486;2023-04-07T15:08:59;2.93;;;0.40;;
71423;SDS011;59240;51.370;-0.486;2023-04-07T15:15:23;5.30;;;0.55;;
71423;SDS011;59240;51.370;-0.486;2023-04-07T15:18:27;3.75;;;0.73;;
71423;SDS011;59240;51.370;-0.486;2023-04-07T15:27:24;5.07;;;0.60;;
71423;SDS011;59240;51.370;-0.486;2023-04-07T15:33:25;4.30;;;0.50;;
71423;SDS011;59240;51.370;-0.486;2023-04-07T15:36:36;3.05;;;0.50;;
71423;SDS011;59240;51.370;-0.486;2023-04-07T15:45:42;3.90;;;0.50;;
71423;SDS011;59240;51.370;-0.486;2023-04-07T15:48:16;5.20;;;0.88;;
71423;SDS011;59240;51.370;-0.486;2023-04-07T15:50:49;4.38;;;0.65;;
71423;SDS011;59240;51.370;-0.486;2023-04-07T15:53:38;4.75;;;0.82;;
71423;SDS011;59240;51.370;-0.486;2023-04-07T15:56:26;4.83;;;0.53;;
71423;SDS011;59240;51.370;-0.486;2023-04-07T15:59:05;5.82;;;0.80;;
71423;SDS011;59240;51.370;-0.486;2023-04-07T16:02:19;4.18;;;0.50;;
71423;SDS011;59240;51.370;-0.486;2023-04-07T16:04:55;3.10;;;0.50;;
71423;SDS011;59240;51.370;-0.486;2023-04-07T16:07:38;3.55;;;0.60;;
71423;SDS011;59240;51.370;-0.486;2023-04-07T16:10:50;3.30;;;0.67;;
71423;SDS011;59240;51.370;-0.486;2023-04-07T16:13:17;3.28;;;0.68;;
71423;SDS011;59240;51.370;-0.486;2023-04-07T16:19:22;5.13;;;0.60;;
71423;SDS011;59240;51.370;-0.486;2023-04-07T16:21:50;4.68;;;0.90;;
71423;SDS011;59240;51.370;-0.486;2023-04-07T16:24:18;4.90;;;0.90;;
71423;SDS011;59240;51.370;-0.486;2023-04-07T16:27:11;3.85;;;0.57;;
71423;SDS011;59240;51.370;-0.486;2023-04-07T16:29:43;4.68;;;0.82;;
71423;SDS011;59240;51.370;-0.486;2023-04-07T16:32:41;5.25;;;0.68;;
71423;SDS011;59240;51.370;-0.486;2023-04-07T16:36:22;5.18;;;1.13;;
71423;SDS011;59240;51.370;-0.486;2023-04-07T16:40:26;6.17;;;1.40;;